sensor_id;sensor_type;location;lat;lon;timestamp;P1;durP1;ratioP1;P2;durP2;ratioP2
70814;SDS011;58428;49.478;10.986;2023-03-21T00:02:18;6.40;;;3.17;;
70814;SDS011;58428;49.478;10.986;2023-03-21T00:04:50;7.65;;;3.25;;
70814;SDS011;58428;49.478;10.986;2023-03-21T00:07:18;6.88;;;3.30;;
70814;SDS011;58428;49.478;10.986;2023-03-21T00:09:43;6.38;;;3.28;;
70814;SDS011;58428;49.478;10.986;2023-03-21T00:12:09;7.07;;;3.20;;
70814;SDS011;58428;49.478;10.986;2023-03-21T00:14:38;6.28;;;3.20;;
70814;SDS011;58428;49.478;10.986;2023-03-21T00:17:04;6.25;;;2.97;;
70814;SDS011;58428;49.478;10.986;2023-03-21T00:19:34;6.60;;;3.03;;
70814;SDS011;58428;49.478;10.986;2023-03-21T00:22:03;6.28;;;3.30;;
70814;SDS011;58428;49.478;10.986;2023-03-21T00:24:30;7.35;;;3.20;;
70814;SDS011;58428;49.478;10.986;2023-03-21T00:26:55;5.40;;;2.85;;
70814;SDS011;58428;49.478;10.986;2023-03-21T00:29:21;6.10;;;2.90;;
70814;SDS011;58428;49.478;10.986;2023-03-21T00:31:47;5.97;;;3.10;;
70814;SDS011;58428;49.478;10.986;2023-03-21T00:34:13;7.20;;;3.00;;
70814;SDS011;58428;49.478;10.986;2023-03-21T00:36:41;6.38;;;3.00;;
70814;SDS011;58428;49.478;10.986;2023-03-21T00:39:11;6.03;;;2.85;;
70814;SDS011;58428;49.478;10.986;2023-03-21T00:41:39;6.43;;;3.00;;
70814;SDS011;58428;49.478;10.986;2023-03-21T00:44:09;5.47;;;2.80;;
70814;SDS011;58428;49.478;10.986;2023-03-21T00:46:39;7.18;;;3.20;;
70814;SDS011;58428;49.478;10.986;2023-03-21T00:49:05;9.27;;;3.30;;
70814;SDS011;58428;49.478;10.986;2023-03-21T00:51:30;5.18;;;2.75;;
70814;SDS011;58428;49.478;10.986;2023-03-21T00:53:57;6.40;;;2.88;;
70814;SDS011;58428;49.478;10.986;2023-03-21T00:56:26;7.72;;;2.90;;
70814;SDS011;58428;49.478;10.986;2023-03-21T00:58:55;7.70;;;3.30;;
70814;SDS011;58428;49.478;10.986;2023-03-21T01:01:21;5.97;;;2.55;;
70814;SDS011;58428;49.478;10.986;2023-03-21T01:04:13;6.47;;;3.03;;
70814;SDS011;58428;49.478;10.986;2023-03-21T01:06:40;5.32;;;2.88;;
70814;SDS011;58428;49.478;10.986;2023-03-21T01:09:14;6.55;;;2.55;;
70814;SDS011;58428;49.478;10.986;2023-03-21T01:11:43;6.35;;;3.10;;
70814;SDS011;58428;49.478;10.986;2023-03-21T01:14:11;5.45;;;2.67;;
70814;SDS011;58428;49.478;10.986;2023-03-21T01:19:38;4.97;;;2.72;;
70814;SDS011;58428;49.478;10.986;2023-03-21T01:22:07;5.70;;;2.72;;
70814;SDS011;58428;49.478;10.986;2023-03-21T01:24:33;5.93;;;2.70;;
70814;SDS011;58428;49.478;10.986;2023-03-21T01:26:58;7.45;;;2.97;;
70814;SDS011;58428;49.478;10.986;2023-03-21T01:29:26;6.28;;;2.80;;
70814;SDS011;58428;49.478;10.986;2023-03-21T01:31:52;5.78;;;2.75;;
70814;SDS011;58428;49.478;10.986;2023-03-21T01:34:17;5.85;;;2.60;;
70814;SDS011;58428;49.478;10.986;2023-03-21T01:36:42;7.20;;;2.90;;
70814;SDS011;58428;49.478;10.986;2023-03-21T01:39:09;7.18;;;3.03;;
70814;SDS011;58428;49.478;10.986;2023-03-21T01:41:36;7.03;;;2.90;;
70814;SDS011;58428;49.478;10.986;2023-03-21T01:44:04;6.88;;;3.00;;
70814;SDS011;58428;49.478;10.986;2023-03-21T01:49:13;6.35;;;2.60;;
70814;SDS011;58428;49.478;10.986;2023-03-21T01:51:49;4.43;;;2.20;;
70814;SDS011;58428;49.478;10.986;2023-03-21T01:54:20;6.05;;;2.70;;
70814;SDS011;58428;49.478;10.986;2023-03-21T01:56:53;6.28;;;2.60;;
70814;SDS011;58428;49.478;10.986;2023-03-21T01:59:34;5.65;;;2.60;;
70814;SDS011;58428;49.478;10.986;2023-03-21T02:02:04;5.53;;;2.50;;
70814;SDS011;58428;49.478;10.986;2023-03-21T02:04:34;6.35;;;2.63;;
70814;SDS011;58428;49.478;10.986;2023-03-21T02:07:09;6.22;;;2.70;;
70814;SDS011;58428;49.478;10.986;2023-03-21T02:09:43;4.90;;;2.42;;
70814;SDS011;58428;49.478;10.986;2023-03-21T02:12:11;4.65;;;2.40;;
70814;SDS011;58428;49.478;10.986;2023-03-21T02:14:36;5.25;;;2.40;;
70814;SDS011;58428;49.478;10.986;2023-03-21T02:22:47;5.70;;;2.72;;
70814;SDS011;58428;49.478;10.986;2023-03-21T02:40:21;6.13;;;2.75;;
70814;SDS011;58428;49.478;10.986;2023-03-21T02:45:52;6.15;;;2.70;;
70814;SDS011;58428;49.478;10.986;2023-03-21T02:48:25;6.50;;;2.60;;
70814;SDS011;58428;49.478;10.986;2023-03-21T02:50:58;6.20;;;2.70;;
70814;SDS011;58428;49.478;10.986;2023-03-21T02:53:27;5.65;;;2.50;;
70814;SDS011;58428;49.478;10.986;2023-03-21T02:55:58;4.72;;;2.47;;
70814;SDS011;58428;49.478;10.986;2023-03-21T02:58:27;5.50;;;2.38;;
70814;SDS011;58428;49.478;10.986;2023-03-21T03:00:57;5.25;;;2.60;;
70814;SDS011;58428;49.478;10.986;2023-03-21T03:03:23;7.43;;;2.40;;
70814;SDS011;58428;49.478;10.986;2023-03-21T03:05:55;6.13;;;2.65;;
70814;SDS011;58428;49.478;10.986;2023-03-21T03:16:54;4.93;;;2.47;;
70814;SDS011;58428;49.478;10.986;2023-03-21T03:19:43;6.65;;;2.45;;
70814;SDS011;58428;49.478;10.986;2023-03-21T03:25:04;4.97;;;2.60;;
70814;SDS011;58428;49.478;10.986;2023-03-21T03:27:57;8.73;;;2.70;;
70814;SDS011;58428;49.478;10.986;2023-03-21T03:30:25;5.88;;;2.50;;
70814;SDS011;58428;49.478;10.986;2023-03-21T03:32:56;5.70;;;2.53;;
70814;SDS011;58428;49.478;10.986;2023-03-21T03:35:26;6.30;;;2.88;;
70814;SDS011;58428;49.478;10.986;2023-03-21T03:37:55;5.97;;;2.50;;
70814;SDS011;58428;49.478;10.986;2023-03-21T03:40:30;4.22;;;2.50;;
70814;SDS011;58428;49.478;10.986;2023-03-21T03:43:07;6.30;;;2.60;;
70814;SDS011;58428;49.478;10.986;2023-03-21T03:45:43;6.18;;;2.90;;
70814;SDS011;58428;49.478;10.986;2023-03-21T03:48:28;5.57;;;2.70;;
70814;SDS011;58428;49.478;10.986;2023-03-21T03:56:13;5.32;;;2.72;;
70814;SDS011;58428;49.478;10.986;2023-03-21T03:59:08;6.50;;;3.03;;
70814;SDS011;58428;49.478;10.986;2023-03-21T04:01:34;6.35;;;2.70;;
70814;SDS011;58428;49.478;10.986;2023-03-21T04:04:05;6.10;;;2.80;;
70814;SDS011;58428;49.478;10.986;2023-03-21T04:06:31;5.97;;;2.80;;
70814;SDS011;58428;49.478;10.986;2023-03-21T04:08:57;6.35;;;2.83;;
70814;SDS011;58428;49.478;10.986;2023-03-21T04:11:22;5.40;;;3.13;;
70814;SDS011;58428;49.478;10.986;2023-03-21T04:13:48;7.88;;;2.95;;
70814;SDS011;58428;49.478;10.986;2023-03-21T04:16:15;7.18;;;2.95;;
70814;SDS011;58428;49.478;10.986;2023-03-21T04:18:41;6.25;;;3.15;;
70814;SDS011;58428;49.478;10.986;2023-03-21T04:21:09;6.95;;;2.88;;
70814;SDS011;58428;49.478;10.986;2023-03-21T04:23:37;7.25;;;2.70;;
70814;SDS011;58428;49.478;10.986;2023-03-21T04:26:02;6.47;;;2.90;;
70814;SDS011;58428;49.478;10.986;2023-03-21T04:28:29;7.93;;;3.03;;
70814;SDS011;58428;49.478;10.986;2023-03-21T04:31:06;7.03;;;2.97;;
70814;SDS011;58428;49.478;10.986;2023-03-21T04:33:33;6.38;;;3.05;;
70814;SDS011;58428;49.478;10.986;2023-03-21T04:36:02;7.65;;;3.30;;
70814;SDS011;58428;49.478;10.986;2023-03-21T04:38:30;5.38;;;3.05;;
70814;SDS011;58428;49.478;10.986;2023-03-21T04:40:57;11.90;;;4.25;;
70814;SDS011;58428;49.478;10.986;2023-03-21T04:45:49;5.05;;;3.10;;
70814;SDS011;58428;49.478;10.986;2023-03-21T04:48:18;7.75;;;3.10;;
70814;SDS011;58428;49.478;10.986;2023-03-21T04:50:48;8.48;;;3.50;;
70814;SDS011;58428;49.478;10.986;2023-03-21T04:53:15;6.85;;;3.83;;
70814;SDS011;58428;49.478;10.986;2023-03-21T04:55:41;6.40;;;3.70;;
70814;SDS011;58428;49.478;10.986;2023-03-21T04:58:07;7.10;;;3.60;;
70814;SDS011;58428;49.478;10.986;2023-03-21T05:00:32;10.95;;;3.88;;
70814;SDS011;58428;49.478;10.986;2023-03-21T05:03:06;9.65;;;4.00;;
70814;SDS011;58428;49.478;10.986;2023-03-21T05:05:35;8.52;;;4.25;;
70814;SDS011;58428;49.478;10.986;2023-03-21T05:08:03;10.10;;;4.53;;
70814;SDS011;58428;49.478;10.986;2023-03-21T05:10:29;7.82;;;3.70;;
70814;SDS011;58428;49.478;10.986;2023-03-21T05:13:07;7.60;;;3.70;;
70814;SDS011;58428;49.478;10.986;2023-03-21T05:15:33;7.55;;;3.47;;
70814;SDS011;58428;49.478;10.986;2023-03-21T05:17:58;6.80;;;3.42;;
70814;SDS011;58428;49.478;10.986;2023-03-21T05:20:37;6.00;;;3.35;;
70814;SDS011;58428;49.478;10.986;2023-03-21T05:23:09;8.02;;;3.42;;
70814;SDS011;58428;49.478;10.986;2023-03-21T05:28:53;8.40;;;3.97;;
70814;SDS011;58428;49.478;10.986;2023-03-21T05:31:51;8.15;;;3.70;;
70814;SDS011;58428;49.478;10.986;2023-03-21T05:34:37;8.88;;;4.53;;
70814;SDS011;58428;49.478;10.986;2023-03-21T05:53:10;6.80;;;3.60;;
70814;SDS011;58428;49.478;10.986;2023-03-21T05:55:41;7.85;;;4.22;;
70814;SDS011;58428;49.478;10.986;2023-03-21T05:59:02;8.13;;;3.90;;
70814;SDS011;58428;49.478;10.986;2023-03-21T06:02:01;7.35;;;3.72;;
70814;SDS011;58428;49.478;10.986;2023-03-21T06:05:00;8.20;;;3.72;;
70814;SDS011;58428;49.478;10.986;2023-03-21T06:13:36;6.95;;;3.53;;
70814;SDS011;58428;49.478;10.986;2023-03-21T06:17:06;8.43;;;3.97;;
70814;SDS011;58428;49.478;10.986;2023-03-21T06:22:31;7.22;;;3.97;;
70814;SDS011;58428;49.478;10.986;2023-03-21T06:25:44;8.32;;;3.53;;
70814;SDS011;58428;49.478;10.986;2023-03-21T06:40:02;9.45;;;4.07;;
70814;SDS011;58428;49.478;10.986;2023-03-21T06:42:51;8.02;;;3.70;;
70814;SDS011;58428;49.478;10.986;2023-03-21T06:46:09;6.65;;;3.80;;
70814;SDS011;58428;49.478;10.986;2023-03-21T06:49:03;7.93;;;4.05;;
70814;SDS011;58428;49.478;10.986;2023-03-21T06:52:12;9.05;;;3.78;;
70814;SDS011;58428;49.478;10.986;2023-03-21T06:55:15;6.75;;;3.65;;
70814;SDS011;58428;49.478;10.986;2023-03-21T07:02:02;7.38;;;4.10;;
70814;SDS011;58428;49.478;10.986;2023-03-21T07:18:16;7.13;;;3.45;;
70814;SDS011;58428;49.478;10.986;2023-03-21T07:21:27;8.50;;;3.78;;
70814;SDS011;58428;49.478;10.986;2023-03-21T07:24:08;7.57;;;4.35;;
70814;SDS011;58428;49.478;10.986;2023-03-21T07:26:41;6.68;;;3.60;;
70814;SDS011;58428;49.478;10.986;2023-03-21T07:29:35;9.02;;;3.97;;
70814;SDS011;58428;49.478;10.986;2023-03-21T07:32:34;8.13;;;4.13;;
70814;SDS011;58428;49.478;10.986;2023-03-21T07:38:17;7.32;;;4.25;;
70814;SDS011;58428;49.478;10.986;2023-03-21T07:55:00;6.38;;;3.63;;
70814;SDS011;58428;49.478;10.986;2023-03-21T08:24:22;12.73;;;3.97;;
70814;SDS011;58428;49.478;10.986;2023-03-21T08:26:53;6.93;;;3.20;;
70814;SDS011;58428;49.478;10.986;2023-03-21T08:29:18;8.35;;;3.38;;
70814;SDS011;58428;49.478;10.986;2023-03-21T08:31:48;8.52;;;3.58;;
70814;SDS011;58428;49.478;10.986;2023-03-21T08:34:16;7.70;;;3.72;;
70814;SDS011;58428;49.478;10.986;2023-03-21T08:36:43;10.63;;;3.30;;
70814;SDS011;58428;49.478;10.986;2023-03-21T08:45:37;8.05;;;3.65;;
70814;SDS011;58428;49.478;10.986;2023-03-21T09:04:07;6.65;;;3.30;;
70814;SDS011;58428;49.478;10.986;2023-03-21T09:07:10;8.18;;;3.60;;
70814;SDS011;58428;49.478;10.986;2023-03-21T09:13:47;8.10;;;3.33;;
70814;SDS011;58428;49.478;10.986;2023-03-21T09:16:22;10.00;;;3.72;;
70814;SDS011;58428;49.478;10.986;2023-03-21T09:18:56;7.22;;;3.47;;
70814;SDS011;58428;49.478;10.986;2023-03-21T09:25:01;16.23;;;5.60;;
70814;SDS011;58428;49.478;10.986;2023-03-21T09:30:52;7.90;;;3.63;;
70814;SDS011;58428;49.478;10.986;2023-03-21T09:37:15;7.90;;;3.50;;
70814;SDS011;58428;49.478;10.986;2023-03-21T09:40:19;8.25;;;3.88;;
70814;SDS011;58428;49.478;10.986;2023-03-21T09:43:09;7.22;;;2.92;;
70814;SDS011;58428;49.478;10.986;2023-03-21T09:53:34;5.68;;;2.20;;
70814;SDS011;58428;49.478;10.986;2023-03-21T10:27:00;6.78;;;3.08;;
70814;SDS011;58428;49.478;10.986;2023-03-21T10:29:40;5.15;;;2.63;;
70814;SDS011;58428;49.478;10.986;2023-03-21T10:32:08;7.35;;;2.70;;
70814;SDS011;58428;49.478;10.986;2023-03-21T10:34:39;5.78;;;2.88;;
70814;SDS011;58428;49.478;10.986;2023-03-21T10:37:09;6.03;;;2.67;;
70814;SDS011;58428;49.478;10.986;2023-03-21T10:39:36;7.47;;;3.22;;
70814;SDS011;58428;49.478;10.986;2023-03-21T10:42:05;7.55;;;3.30;;
70814;SDS011;58428;49.478;10.986;2023-03-21T10:47:06;5.60;;;2.70;;
70814;SDS011;58428;49.478;10.986;2023-03-21T10:49:38;7.75;;;3.45;;
70814;SDS011;58428;49.478;10.986;2023-03-21T10:52:06;6.28;;;2.72;;
70814;SDS011;58428;49.478;10.986;2023-03-21T10:54:34;6.13;;;2.65;;
70814;SDS011;58428;49.478;10.986;2023-03-21T11:00:02;6.13;;;2.67;;
70814;SDS011;58428;49.478;10.986;2023-03-21T11:02:41;5.15;;;2.58;;
70814;SDS011;58428;49.478;10.986;2023-03-21T11:07:43;7.07;;;3.25;;
70814;SDS011;58428;49.478;10.986;2023-03-21T11:10:25;9.27;;;3.55;;
70814;SDS011;58428;49.478;10.986;2023-03-21T11:12:56;5.45;;;2.78;;
70814;SDS011;58428;49.478;10.986;2023-03-21T11:15:46;7.45;;;3.00;;
70814;SDS011;58428;49.478;10.986;2023-03-21T11:18:23;6.78;;;3.58;;
70814;SDS011;58428;49.478;10.986;2023-03-21T11:20:56;8.32;;;3.60;;
70814;SDS011;58428;49.478;10.986;2023-03-21T11:23:27;8.23;;;3.13;;
70814;SDS011;58428;49.478;10.986;2023-03-21T11:25:54;7.97;;;3.63;;
70814;SDS011;58428;49.478;10.986;2023-03-21T11:28:25;6.18;;;3.20;;
70814;SDS011;58428;49.478;10.986;2023-03-21T11:30:59;6.65;;;3.45;;
70814;SDS011;58428;49.478;10.986;2023-03-21T11:33:27;7.25;;;3.35;;
70814;SDS011;58428;49.478;10.986;2023-03-21T11:36:04;6.95;;;3.70;;
70814;SDS011;58428;49.478;10.986;2023-03-21T11:38:37;8.60;;;3.55;;
70814;SDS011;58428;49.478;10.986;2023-03-21T11:41:04;6.97;;;3.90;;
70814;SDS011;58428;49.478;10.986;2023-03-21T11:43:34;7.10;;;3.47;;
70814;SDS011;58428;49.478;10.986;2023-03-21T11:46:08;6.78;;;3.80;;
70814;SDS011;58428;49.478;10.986;2023-03-21T11:48:39;6.63;;;3.63;;
70814;SDS011;58428;49.478;10.986;2023-03-21T11:51:11;6.57;;;3.80;;
70814;SDS011;58428;49.478;10.986;2023-03-21T12:03:27;6.43;;;3.00;;
70814;SDS011;58428;49.478;10.986;2023-03-21T12:25:38;6.53;;;3.50;;
70814;SDS011;58428;49.478;10.986;2023-03-21T12:28:26;6.80;;;3.20;;
70814;SDS011;58428;49.478;10.986;2023-03-21T12:47:20;5.47;;;3.00;;
70814;SDS011;58428;49.478;10.986;2023-03-21T13:43:18;4.72;;;1.83;;
70814;SDS011;58428;49.478;10.986;2023-03-21T13:57:17;4.15;;;2.20;;
70814;SDS011;58428;49.478;10.986;2023-03-21T14:53:01;4.22;;;1.60;;
70814;SDS011;58428;49.478;10.986;2023-03-21T15:04:53;3.55;;;1.50;;
70814;SDS011;58428;49.478;10.986;2023-03-21T15:22:12;4.10;;;1.83;;
70814;SDS011;58428;49.478;10.986;2023-03-21T15:43:46;3.63;;;1.63;;
70814;SDS011;58428;49.478;10.986;2023-03-21T15:46:45;7.03;;;4.03;;
70814;SDS011;58428;49.478;10.986;2023-03-21T15:49:24;21.55;;;16.02;;
70814;SDS011;58428;49.478;10.986;2023-03-21T15:52:13;4.93;;;2.60;;
70814;SDS011;58428;49.478;10.986;2023-03-21T15:54:50;4.13;;;2.20;;
70814;SDS011;58428;49.478;10.986;2023-03-21T15:57:36;4.32;;;1.90;;
70814;SDS011;58428;49.478;10.986;2023-03-21T16:00:20;4.20;;;2.00;;
70814;SDS011;58428;49.478;10.986;2023-03-21T16:03:04;3.33;;;1.60;;
70814;SDS011;58428;49.478;10.986;2023-03-21T16:08:34;2.78;;;1.45;;
70814;SDS011;58428;49.478;10.986;2023-03-21T16:13:54;2.65;;;1.48;;
70814;SDS011;58428;49.478;10.986;2023-03-21T16:16:41;4.75;;;1.40;;
70814;SDS011;58428;49.478;10.986;2023-03-21T16:19:32;3.15;;;1.50;;
70814;SDS011;58428;49.478;10.986;2023-03-21T16:22:08;2.42;;;1.50;;
70814;SDS011;58428;49.478;10.986;2023-03-21T16:24:37;3.88;;;1.80;;
70814;SDS011;58428;49.478;10.986;2023-03-21T16:27:10;3.08;;;1.63;;
70814;SDS011;58428;49.478;10.986;2023-03-21T16:29:49;2.92;;;1.63;;
70814;SDS011;58428;49.478;10.986;2023-03-21T16:35:19;2.72;;;1.58;;
70814;SDS011;58428;49.478;10.986;2023-03-21T16:38:19;4.03;;;1.63;;
70814;SDS011;58428;49.478;10.986;2023-03-21T16:41:08;3.80;;;1.80;;
70814;SDS011;58428;49.478;10.986;2023-03-21T16:43:37;4.28;;;1.88;;
70814;SDS011;58428;49.478;10.986;2023-03-21T16:46:13;3.95;;;1.80;;
70814;SDS011;58428;49.478;10.986;2023-03-21T16:48:45;5.45;;;2.67;;
70814;SDS011;58428;49.478;10.986;2023-03-21T16:51:16;5.95;;;2.63;;
70814;SDS011;58428;49.478;10.986;2023-03-21T16:56:50;6.53;;;2.38;;
70814;SDS011;58428;49.478;10.986;2023-03-21T16:59:33;5.82;;;2.40;;
70814;SDS011;58428;49.478;10.986;2023-03-21T17:02:14;3.63;;;1.98;;
70814;SDS011;58428;49.478;10.986;2023-03-21T17:04:49;4.32;;;2.30;;
70814;SDS011;58428;49.478;10.986;2023-03-21T17:07:15;6.60;;;2.80;;
70814;SDS011;58428;49.478;10.986;2023-03-21T17:09:52;6.35;;;2.97;;
70814;SDS011;58428;49.478;10.986;2023-03-21T17:15:45;7.75;;;3.30;;
70814;SDS011;58428;49.478;10.986;2023-03-21T17:18:40;6.80;;;3.17;;
70814;SDS011;58428;49.478;10.986;2023-03-21T17:21:41;6.93;;;3.47;;
70814;SDS011;58428;49.478;10.986;2023-03-21T17:25:11;7.68;;;3.53;;
70814;SDS011;58428;49.478;10.986;2023-03-21T17:30:57;7.35;;;3.72;;
70814;SDS011;58428;49.478;10.986;2023-03-21T17:34:33;8.85;;;3.92;;
70814;SDS011;58428;49.478;10.986;2023-03-21T17:46:32;9.98;;;4.80;;
70814;SDS011;58428;49.478;10.986;2023-03-21T17:49:25;8.23;;;4.35;;
70814;SDS011;58428;49.478;10.986;2023-03-21T17:52:14;7.53;;;4.10;;
70814;SDS011;58428;49.478;10.986;2023-03-21T17:59:11;9.40;;;4.82;;
70814;SDS011;58428;49.478;10.986;2023-03-21T18:02:38;11.68;;;5.72;;
70814;SDS011;58428;49.478;10.986;2023-03-21T18:27:05;8.07;;;4.97;;
70814;SDS011;58428;49.478;10.986;2023-03-21T18:30:38;10.38;;;5.38;;
70814;SDS011;58428;49.478;10.986;2023-03-21T18:33:56;13.48;;;9.25;;
70814;SDS011;58428;49.478;10.986;2023-03-21T18:48:16;9.73;;;4.47;;
70814;SDS011;58428;49.478;10.986;2023-03-21T18:53:43;7.78;;;4.57;;
70814;SDS011;58428;49.478;10.986;2023-03-21T18:56:09;8.65;;;4.57;;
70814;SDS011;58428;49.478;10.986;2023-03-21T18:58:37;8.60;;;4.60;;
70814;SDS011;58428;49.478;10.986;2023-03-21T19:12:15;9.25;;;5.22;;
70814;SDS011;58428;49.478;10.986;2023-03-21T19:14:42;9.65;;;5.38;;
70814;SDS011;58428;49.478;10.986;2023-03-21T19:21:06;10.35;;;5.25;;
70814;SDS011;58428;49.478;10.986;2023-03-21T19:23:35;9.38;;;5.00;;
70814;SDS011;58428;49.478;10.986;2023-03-21T19:26:11;10.05;;;5.60;;
70814;SDS011;58428;49.478;10.986;2023-03-21T19:28:40;10.55;;;5.20;;
70814;SDS011;58428;49.478;10.986;2023-03-21T19:35:12;10.02;;;4.68;;
70814;SDS011;58428;49.478;10.986;2023-03-21T19:38:28;8.13;;;4.68;;
70814;SDS011;58428;49.478;10.986;2023-03-21T19:48:00;11.23;;;6.28;;
70814;SDS011;58428;49.478;10.986;2023-03-21T19:51:27;12.43;;;7.22;;
70814;SDS011;58428;49.478;10.986;2023-03-21T19:54:06;16.13;;;7.45;;
70814;SDS011;58428;49.478;10.986;2023-03-21T19:57:19;13.70;;;7.40;;
70814;SDS011;58428;49.478;10.986;2023-03-21T20:00:27;11.75;;;6.93;;
70814;SDS011;58428;49.478;10.986;2023-03-21T20:03:42;11.27;;;6.68;;
70814;SDS011;58428;49.478;10.986;2023-03-21T20:13:10;9.75;;;5.45;;
70814;SDS011;58428;49.478;10.986;2023-03-21T20:15:39;9.68;;;5.78;;
70814;SDS011;58428;49.478;10.986;2023-03-21T20:18:50;10.07;;;5.60;;
70814;SDS011;58428;49.478;10.986;2023-03-21T20:24:10;10.05;;;5.53;;
70814;SDS011;58428;49.478;10.986;2023-03-21T20:27:05;11.88;;;5.78;;
70814;SDS011;58428;49.478;10.986;2023-03-21T20:29:49;10.60;;;6.30;;
70814;SDS011;58428;49.478;10.986;2023-03-21T20:42:48;11.65;;;6.57;;
70814;SDS011;58428;49.478;10.986;2023-03-21T20:49:15;12.23;;;6.88;;
70814;SDS011;58428;49.478;10.986;2023-03-21T20:52:09;13.05;;;6.88;;
70814;SDS011;58428;49.478;10.986;2023-03-21T20:54:50;10.07;;;6.20;;
70814;SDS011;58428;49.478;10.986;2023-03-21T21:01:29;10.82;;;6.03;;
70814;SDS011;58428;49.478;10.986;2023-03-21T21:04:16;12.80;;;5.97;;
70814;SDS011;58428;49.478;10.986;2023-03-21T21:07:02;9.18;;;5.35;;
70814;SDS011;58428;49.478;10.986;2023-03-21T21:09:51;9.55;;;5.60;;
70814;SDS011;58428;49.478;10.986;2023-03-21T21:12:36;9.95;;;5.90;;
70814;SDS011;58428;49.478;10.986;2023-03-21T21:15:09;10.98;;;6.25;;
70814;SDS011;58428;49.478;10.986;2023-03-21T21:17:46;11.40;;;6.40;;
70814;SDS011;58428;49.478;10.986;2023-03-21T21:23:45;13.15;;;7.03;;
70814;SDS011;58428;49.478;10.986;2023-03-21T21:26:15;10.45;;;6.20;;
70814;SDS011;58428;49.478;10.986;2023-03-21T21:28:43;12.00;;;6.28;;
70814;SDS011;58428;49.478;10.986;2023-03-21T21:31:15;12.00;;;6.80;;
70814;SDS011;58428;49.478;10.986;2023-03-21T21:33:42;12.20;;;7.13;;
70814;SDS011;58428;49.478;10.986;2023-03-21T21:36:10;13.63;;;7.50;;
70814;SDS011;58428;49.478;10.986;2023-03-21T21:38:37;12.05;;;7.53;;
70814;SDS011;58428;49.478;10.986;2023-03-21T21:41:05;11.65;;;7.15;;
70814;SDS011;58428;49.478;10.986;2023-03-21T21:43:32;11.68;;;6.72;;
70814;SDS011;58428;49.478;10.986;2023-03-21T21:46:04;10.52;;;6.20;;
70814;SDS011;58428;49.478;10.986;2023-03-21T21:48:35;11.20;;;6.30;;
70814;SDS011;58428;49.478;10.986;2023-03-21T21:51:01;10.48;;;6.47;;
70814;SDS011;58428;49.478;10.986;2023-03-21T21:53:26;10.20;;;6.53;;
70814;SDS011;58428;49.478;10.986;2023-03-21T21:55:53;13.57;;;7.05;;
70814;SDS011;58428;49.478;10.986;2023-03-21T21:58:20;11.70;;;6.53;;
70814;SDS011;58428;49.478;10.986;2023-03-21T22:00:49;11.25;;;7.05;;
70814;SDS011;58428;49.478;10.986;2023-03-21T22:03:16;11.40;;;6.88;;
70814;SDS011;58428;49.478;10.986;2023-03-21T22:05:47;13.20;;;7.90;;
70814;SDS011;58428;49.478;10.986;2023-03-21T22:08:13;14.20;;;8.00;;
70814;SDS011;58428;49.478;10.986;2023-03-21T22:10:43;13.23;;;7.78;;
70814;SDS011;58428;49.478;10.986;2023-03-21T22:13:14;12.70;;;7.10;;
70814;SDS011;58428;49.478;10.986;2023-03-21T22:16:01;12.90;;;7.38;;
70814;SDS011;58428;49.478;10.986;2023-03-21T22:18:27;15.60;;;7.55;;
70814;SDS011;58428;49.478;10.986;2023-03-21T22:20:52;15.43;;;7.72;;
70814;SDS011;58428;49.478;10.986;2023-03-21T22:23:20;14.48;;;7.85;;
70814;SDS011;58428;49.478;10.986;2023-03-21T22:25:52;14.00;;;7.45;;
70814;SDS011;58428;49.478;10.986;2023-03-21T22:30:46;12.75;;;7.45;;
70814;SDS011;58428;49.478;10.986;2023-03-21T22:33:13;13.20;;;7.25;;
70814;SDS011;58428;49.478;10.986;2023-03-21T22:35:45;13.48;;;7.15;;
70814;SDS011;58428;49.478;10.986;2023-03-21T22:41:38;13.13;;;6.68;;
70814;SDS011;58428;49.478;10.986;2023-03-21T22:44:06;11.80;;;7.45;;
70814;SDS011;58428;49.478;10.986;2023-03-21T22:46:31;11.70;;;7.00;;
70814;SDS011;58428;49.478;10.986;2023-03-21T22:49:01;14.13;;;7.18;;
70814;SDS011;58428;49.478;10.986;2023-03-21T22:51:28;11.65;;;6.95;;
70814;SDS011;58428;49.478;10.986;2023-03-21T22:56:22;10.68;;;6.43;;
70814;SDS011;58428;49.478;10.986;2023-03-21T22:58:51;13.10;;;6.93;;
70814;SDS011;58428;49.478;10.986;2023-03-21T23:01:16;11.70;;;6.55;;
70814;SDS011;58428;49.478;10.986;2023-03-21T23:03:42;12.13;;;6.45;;
70814;SDS011;58428;49.478;10.986;2023-03-21T23:06:08;10.82;;;6.57;;
70814;SDS011;58428;49.478;10.986;2023-03-21T23:08:35;13.73;;;7.15;;
70814;SDS011;58428;49.478;10.986;2023-03-21T23:11:05;11.18;;;6.55;;
70814;SDS011;58428;49.478;10.986;2023-03-21T23:13:37;11.88;;;6.95;;
70814;SDS011;58428;49.478;10.986;2023-03-21T23:16:09;11.95;;;6.80;;
70814;SDS011;58428;49.478;10.986;2023-03-21T23:21:44;12.75;;;7.55;;
70814;SDS011;58428;49.478;10.986;2023-03-21T23:24:11;13.13;;;7.38;;
70814;SDS011;58428;49.478;10.986;2023-03-21T23:29:06;12.32;;;7.00;;
70814;SDS011;58428;49.478;10.986;2023-03-21T23:31:34;11.75;;;6.80;;
70814;SDS011;58428;49.478;10.986;2023-03-21T23:34:01;12.75;;;7.63;;
70814;SDS011;58428;49.478;10.986;2023-03-21T23:39:57;15.27;;;8.43;;
70814;SDS011;58428;49.478;10.986;2023-03-21T23:42:23;14.93;;;8.18;;
70814;SDS011;58428;49.478;10.986;2023-03-21T23:44:51;11.82;;;7.45;;
70814;SDS011;58428;49.478;10.986;2023-03-21T23:47:18;13.90;;;7.93;;
70814;SDS011;58428;49.478;10.986;2023-03-21T23:49:47;12.95;;;7.18;;
70814;SDS011;58428;49.478;10.986;2023-03-21T23:52:16;11.75;;;7.00;;
70814;SDS011;58428;49.478;10.986;2023-03-21T23:54:43;12.50;;;6.93;;
70814;SDS011;58428;49.478;10.986;2023-03-21T23:57:12;11.25;;;6.93;;
70814;SDS011;58428;49.478;10.986;2023-03-21T23:59:38;12.38;;;7.53;;
